PHKO

Ellison Onizuka Kona International at Keahole Airport

Kailua/Kona, Hawaii, USA
PHKO 190520Z 1906/2006 VRB06KT P6SM FEW035 SCT060 FM191000 05006KT P6SM FEW030 BKN050 FM192000 28009KT P6SM FEW035 BKN060 FM200400 VRB06KT P6SM FEW035 BKN060
Issued Valid From Valid To
Oct-19 @ 05:20 UTC
(4 hours ago)
Oct-19 @ 06:00 UTC
(3 hours ago)
Oct-20 @ 06:00 UTC
(in 21 hours)
Oct-19 @ 06:00 to Oct-19 @ 10:00
PHKO 190520Z 1906/2006 VRB06KT P6SM FEW035 SCT060
Wind Visibility Clouds
Variable at 6 knots Greater than 6 miles
  • Few at 3,500' AGL
  • Scattered at 6,000' AGL
From Oct-19 @ 10:00 to Oct-19 @ 20:00
FM191000 05006KT P6SM FEW030 BKN050
Wind Visibility Clouds
50° at 6 knots Greater than 6 miles
  • Few at 3,000' AGL
  • Broken at 5,000' AGL
From Oct-19 @ 20:00 to Oct-20 @ 04:00
FM192000 28009KT P6SM FEW035 BKN060
Wind Visibility Clouds
280° at 9 knots Greater than 6 miles
  • Few at 3,500' AGL
  • Broken at 6,000' AGL
From Oct-20 @ 04:00 to Oct-20 @ 06:00
FM200400 VRB06KT P6SM FEW035 BKN060
Wind Visibility Clouds
Variable at 6 knots Greater than 6 miles
  • Few at 3,500' AGL
  • Broken at 6,000' AGL
PHKO 190520Z 1906/2006 VRB06KT P6SM FEW035 SCT060 FM191000 05006KT P6SM FEW030 BKN050 FM192000 28009KT P6SM FEW035 BKN060 FM200400 VRB06KT P6SM FEW035 BKN060
Issued Oct-19 @ 05:20 UTC
(4 hours ago)
Valid From Oct-19 @ 06:00 UTC
(3 hours ago)
Valid To Oct-20 @ 06:00 UTC
(in 21 hours)
Oct-19 @ 06:00 - Oct-19 @ 10:00
Wind Visibility
Variable at 6 knots Greater than 6 miles
Clouds
  • Few at 3,500' AGL
  • Scattered at 6,000' AGL
From Oct-19 @ 10:00 - Oct-19 @ 20:00
Wind Visibility
50° at 6 knots Greater than 6 miles
Clouds
  • Few at 3,000' AGL
  • Broken at 5,000' AGL
From Oct-19 @ 20:00 - Oct-20 @ 04:00
Wind Visibility
280° at 9 knots Greater than 6 miles
Clouds
  • Few at 3,500' AGL
  • Broken at 6,000' AGL
From Oct-20 @ 04:00 - Oct-20 @ 06:00
Wind Visibility
Variable at 6 knots Greater than 6 miles
Clouds
  • Few at 3,500' AGL
  • Broken at 6,000' AGL